Terminal Aerodrome Forecast
Issued by NWS Jackson, MS

Home | Current Version | Previous Version | Text Only | Print | Product List | Glossary On
Versions: 1 2 3 4 5 6 7 8 9 10 11 12 13 14 15
731
FTUS44 KMEG 241130
TAFTUP
TAF
KTUP 241130Z 2412/2512 00000KT P6SM SKC
     FM241600 21006KT P6SM BKN250
     FM250000 21003KT P6SM SKC
     FM250800 22003KT P6SM BKN070 BKN120=

USA.gov is the U.S. government's official web portal to all federal, state and local government web resources and services.